Time;durP1;ratioP1;P1;durP2;ratioP2;P2;SDS_P1;SDS_P2;PMS_P1;PMS_P2;Temp;Humidity;BMP_temperature;BMP_pressure;BME280_temperature;BME280_humidity;BME280_pressure;Samples;Min_cycle;Max_cycle;Signal;HPM_P1;HPM_P2
2023/04/17 00:01:37;;;;;;;40.08;20.48;;;8.50;1.00;;;;;;5028886;28;20041;-58
2023/04/17 00:04:04;;;;;;;43.92;22.10;;;8.00;1.00;;;;;;5024808;28;20045;-56
2023/04/17 00:06:32;;;;;;;49.70;23.90;;;8.10;1.00;;;;;;5026179;28;21109;-58
2023/04/17 00:08:58;;;;;;;48.70;23.77;;;8.10;1.00;;;;;;5027204;28;20448;-57
2023/04/17 00:11:25;;;;;;;45.28;23.58;;;7.40;1.00;;;;;;5018475;28;20072;-55
2023/04/17 00:13:51;;;;;;;48.05;24.17;;;8.40;1.00;;;;;;5028285;28;20037;-58
2023/04/17 00:16:16;;;;;;;43.05;21.98;;;8.20;1.00;;;;;;5023700;28;20423;-56
2023/04/17 00:18:42;;;;;;;49.53;26.63;;;8.20;1.00;;;;;;5029173;28;20033;-58
2023/04/17 00:21:08;;;;;;;39.15;20.95;;;;;;;;;;5024470;28;20441;-56
2023/04/17 00:23:34;;;;;;;38.05;21.20;;;8.10;1.00;;;;;;5024186;28;20033;-58
2023/04/17 00:26:00;;;;;;;41.20;20.65;;;8.10;1.00;;;;;;5024160;28;20049;-53
2023/04/17 00:28:25;;;;;;;40.20;21.25;;;8.10;1.00;;;;;;5023503;28;20029;-55
2023/04/17 00:30:51;;;;;;;44.67;21.60;;;8.10;1.00;;;;;;5028368;28;20068;-56
2023/04/17 00:33:17;;;;;;;48.83;22.25;;;8.10;1.00;;;;;;5025173;28;20201;-56
2023/04/17 00:35:42;;;;;;;37.35;19.55;;;7.60;1.00;;;;;;5028431;28;20041;-58
2023/04/17 00:38:08;;;;;;;44.60;22.10;;;8.10;1.00;;;;;;5021529;28;20041;-58
2023/04/17 00:40:34;;;;;;;41.78;20.33;;;;;;;;;;5021188;28;20029;-55
2023/04/17 00:43:01;;;;;;;38.30;18.52;;;8.20;1.00;;;;;;5012951;28;20038;-55
2023/04/17 00:45:27;;;;;;;36.97;19.10;;;8.10;1.00;;;;;;5023000;28;20461;-58
2023/04/17 00:47:54;;;;;;;42.13;19.33;;;8.50;1.00;;;;;;5024648;28;20044;-57
2023/04/17 00:50:19;;;;;;;45.08;19.48;;;8.40;1.00;;;;;;5025556;28;20042;-57
2023/04/17 00:52:46;;;;;;;36.75;17.75;;;;;;;;;;5026986;28;20458;-56
2023/04/17 00:55:13;;;;;;;38.05;18.70;;;;;;;;;;5026484;28;20124;-54
2023/04/17 00:57:41;;;;;;;39.10;19.88;;;8.00;1.00;;;;;;5030333;28;20045;-58
2023/04/17 01:00:08;;;;;;;39.17;20.45;;;8.40;1.00;;;;;;5025371;28;20096;-58
2023/04/17 01:02:34;;;;;;;37.17;18.38;;;;;;;;;;5026816;28;20038;-58
2023/04/17 01:05:00;;;;;;;41.00;19.15;;;7.50;1.00;;;;;;5021269;28;20096;-55
2023/04/17 01:07:26;;;;;;;51.20;20.92;;;7.60;1.00;;;;;;5032896;28;20037;-54
2023/04/17 01:09:53;;;;;;;48.38;21.88;;;7.50;1.00;;;;;;5026503;28;20083;-55
2023/04/17 01:12:20;;;;;;;47.88;21.92;;;7.90;1.00;;;;;;5032461;28;20029;-56
2023/04/17 01:14:48;;;;;;;57.33;23.58;;;7.90;1.00;;;;;;5024636;28;20484;-55
2023/04/17 01:17:14;;;;;;;63.55;26.10;;;8.00;1.00;;;;;;5024904;28;20420;-57
2023/04/17 01:19:40;;;;;;;44.35;21.48;;;7.90;1.00;;;;;;5032698;28;20033;-54
2023/04/17 01:22:06;;;;;;;40.05;20.05;;;8.40;1.00;;;;;;5025425;28;20045;-55
2023/04/17 01:24:32;;;;;;;40.33;19.98;;;8.00;1.00;;;;;;5029736;28;20037;-57
2023/04/17 01:26:58;;;;;;;47.40;22.02;;;7.90;1.00;;;;;;5025619;28;20530;-56
2023/04/17 01:29:23;;;;;;;43.30;19.20;;;8.30;1.00;;;;;;5027922;28;20041;-54
2023/04/17 01:31:49;;;;;;;45.45;20.67;;;7.80;1.00;;;;;;5026175;28;20543;-54
2023/04/17 01:34:15;;;;;;;39.78;19.67;;;7.90;1.00;;;;;;5025908;28;20487;-57
2023/04/17 01:36:41;;;;;;;36.22;19.58;;;7.30;1.00;;;;;;5029689;28;20475;-57
2023/04/17 01:39:06;;;;;;;47.28;21.33;;;7.90;1.00;;;;;;5020875;28;20444;-57
2023/04/17 01:41:32;;;;;;;43.20;22.30;;;8.30;1.00;;;;;;5030087;28;20029;-53
2023/04/17 01:43:58;;;;;;;51.95;22.13;;;7.40;1.00;;;;;;5018663;28;20289;-57
2023/04/17 01:46:23;;;;;;;45.47;21.50;;;8.10;1.00;;;;;;5032033;28;20380;-56
2023/04/17 01:48:49;;;;;;;54.28;22.88;;;7.90;1.00;;;;;;5029416;28;20295;-58
2023/04/17 01:51:15;;;;;;;42.67;21.42;;;7.90;1.00;;;;;;5025656;28;20046;-54
2023/04/17 01:53:40;;;;;;;44.22;21.02;;;8.30;1.00;;;;;;5024437;28;20463;-55
2023/04/17 01:56:06;;;;;;;67.07;26.60;;;7.40;1.00;;;;;;5028334;28;20041;-58
2023/04/17 01:58:32;;;;;;;48.58;22.92;;;7.80;1.00;;;;;;5031940;28;20128;-57
2023/04/17 02:00:59;;;;;;;58.50;25.17;;;7.80;1.00;;;;;;5021831;28;20479;-58
2023/04/17 02:03:24;;;;;;;47.47;21.65;;;7.70;1.00;;;;;;5031353;28;20064;-56
2023/04/17 02:05:51;;;;;;;40.38;19.77;;;;;;;;;;5025290;28;20464;-58
2023/04/17 02:08:17;;;;;;;44.28;19.75;;;8.00;1.00;;;;;;5029476;28;20037;-58
2023/04/17 02:10:43;;;;;;;55.10;23.17;;;7.80;1.00;;;;;;5026876;28;20037;-58
2023/04/17 02:13:11;;;;;;;41.95;19.65;;;8.10;1.00;;;;;;5030538;28;20099;-58
2023/04/17 02:15:37;;;;;;;38.53;18.10;;;7.60;1.00;;;;;;5031241;28;20029;-58
2023/04/17 02:18:05;;;;;;;38.60;19.83;;;7.20;1.00;;;;;;5024980;28;20410;-58
2023/04/17 02:20:31;;;;;;;42.70;20.02;;;7.80;1.00;;;;;;5030678;28;20047;-58
2023/04/17 02:22:58;;;;;;;41.13;20.35;;;7.40;1.00;;;;;;5024304;28;20037;-58
2023/04/17 02:25:23;;;;;;;43.00;21.45;;;8.00;1.00;;;;;;5023370;28;20037;-58
2023/04/17 02:27:49;;;;;;;41.63;20.83;;;7.60;1.00;;;;;;5020807;28;20068;-58
2023/04/17 02:30:15;;;;;;;46.58;21.15;;;7.80;1.00;;;;;;5022227;28;20033;-58
2023/04/17 02:32:41;;;;;;;41.42;20.42;;;7.30;1.00;;;;;;5025431;28;20519;-58
2023/04/17 02:35:07;;;;;;;41.45;18.92;;;7.90;1.00;;;;;;5027935;28;20499;-58
2023/04/17 02:37:32;;;;;;;34.55;18.08;;;7.80;1.00;;;;;;5027244;28;20491;-58
2023/04/17 02:39:58;;;;;;;32.42;17.52;;;7.60;1.00;;;;;;5021644;28;20037;-58
2023/04/17 02:42:23;;;;;;;36.67;19.00;;;7.10;1.00;;;;;;5026099;28;20036;-58
2023/04/17 02:44:49;;;;;;;35.92;17.50;;;7.70;1.00;;;;;;5023354;28;20515;-58
2023/04/17 02:47:15;;;;;;;39.33;18.75;;;7.70;1.00;;;;;;5029789;28;20041;-58
2023/04/17 02:49:40;;;;;;;54.83;21.63;;;7.60;1.00;;;;;;5025363;28;20042;-58
2023/04/17 02:52:06;;;;;;;60.00;22.88;;;7.60;1.00;;;;;;5028600;28;20041;-58
2023/04/17 02:54:32;;;;;;;99.32;28.58;;;7.50;1.00;;;;;;5027467;28;20038;-58
2023/04/17 02:56:58;;;;;;;52.33;20.70;;;7.60;1.00;;;;;;5028099;28;20037;-58
2023/04/17 02:59:27;;;;;;;65.88;25.23;;;;;;;;;;5030375;28;20073;-58
2023/04/17 03:01:52;;;;;;;55.83;23.30;;;7.60;1.00;;;;;;5026469;28;20522;-58
2023/04/17 03:04:18;;;;;;;54.30;22.17;;;7.60;1.00;;;;;;5021902;28;20033;-57
2023/04/17 03:06:44;;;;;;;49.42;23.17;;;7.60;1.00;;;;;;5023517;28;20049;-56
2023/04/17 03:09:13;;;;;;;57.80;23.10;;;7.60;1.00;;;;;;5028182;28;20045;-58
2023/04/17 03:11:39;;;;;;;53.70;25.02;;;7.50;1.00;;;;;;5028055;28;20033;-58
2023/04/17 03:14:04;;;;;;;45.67;23.17;;;7.70;1.00;;;;;;5028990;28;20527;-57
2023/04/17 03:16:30;;;;;;;50.92;23.63;;;7.70;1.00;;;;;;5025274;28;20337;-58
2023/04/17 03:18:56;;;;;;;66.80;26.70;;;7.60;1.00;;;;;;5020077;28;20132;-58
2023/04/17 03:21:21;;;;;;;63.22;25.70;;;7.40;1.00;;;;;;5022193;28;20040;-58
2023/04/17 03:23:47;;;;;;;42.58;19.42;;;7.60;1.00;;;;;;5021940;28;20029;-57
2023/04/17 03:26:13;;;;;;;51.50;23.17;;;7.40;1.00;;;;;;5026032;28;20055;-58
2023/04/17 03:28:39;;;;;;;44.85;20.83;;;7.10;1.00;;;;;;5019952;28;20041;-58
2023/04/17 03:31:05;;;;;;;69.88;25.45;;;6.90;1.00;;;;;;5029964;28;20037;-58
2023/04/17 03:33:31;;;;;;;46.67;23.17;;;7.50;1.00;;;;;;5020783;28;20046;-57
2023/04/17 03:35:56;;;;;;;64.10;25.95;;;7.40;1.00;;;;;;5029577;28;20511;-58
2023/04/17 03:38:22;;;;;;;49.38;24.25;;;8.10;1.00;;;;;;5027035;28;20505;-57
2023/04/17 03:40:47;;;;;;;52.97;24.58;;;7.60;1.00;;;;;;5023977;28;20037;-58
2023/04/17 03:43:13;;;;;;;48.83;22.98;;;8.20;1.00;;;;;;5029782;28;20457;-58
2023/04/17 03:45:39;;;;;;;63.45;25.33;;;7.40;1.00;;;;;;5022895;28;20518;-58
2023/04/17 03:48:06;;;;;;;59.72;23.08;;;7.20;1.00;;;;;;5028179;28;20091;-57
2023/04/17 03:50:31;;;;;;;51.45;22.15;;;7.70;1.00;;;;;;5023698;28;20527;-57
2023/04/17 03:52:57;;;;;;;74.43;26.98;;;7.40;1.00;;;;;;5029470;28;20120;-58
2023/04/17 03:55:22;;;;;;;55.83;22.98;;;7.60;1.00;;;;;;5023726;28;20056;-57
2023/04/17 03:57:50;;;;;;;128.02;36.78;;;7.70;1.00;;;;;;5026138;28;20041;-56
2023/04/17 04:00:16;;;;;;;48.92;21.55;;;;;;;;;;5026632;28;20049;-57
2023/04/17 04:02:42;;;;;;;46.97;21.90;;;7.30;1.00;;;;;;5019904;28;20034;-58
2023/04/17 04:05:08;;;;;;;40.35;19.23;;;7.50;1.00;;;;;;5025038;28;20087;-58
2023/04/17 04:07:34;;;;;;;40.30;18.95;;;7.60;1.00;;;;;;5017240;28;20531;-56
2023/04/17 04:09:59;;;;;;;56.65;20.77;;;7.60;1.00;;;;;;5024695;28;20088;-57
2023/04/17 04:12:25;;;;;;;45.90;20.80;;;7.60;1.00;;;;;;5021597;28;20034;-56
2023/04/17 04:14:50;;;;;;;57.58;24.05;;;7.40;1.00;;;;;;5029004;28;20095;-56
2023/04/17 04:17:16;;;;;;;52.28;22.33;;;8.20;1.00;;;;;;5031638;28;20072;-56
2023/04/17 04:19:42;;;;;;;44.80;20.50;;;7.60;1.00;;;;;;5024793;28;20071;-57
2023/04/17 04:22:09;;;;;;;38.65;20.08;;;;;;;;;;5027786;28;20403;-57
2023/04/17 04:24:35;;;;;;;45.17;21.35;;;7.90;1.00;;;;;;5022183;28;20040;-55
2023/04/17 04:27:03;;;;;;;44.58;20.33;;;7.60;1.00;;;;;;5028038;28;20049;-57
2023/04/17 04:29:30;;;;;;;51.08;21.92;;;7.50;1.00;;;;;;5022325;28;20119;-57
2023/04/17 04:31:55;;;;;;;58.10;22.95;;;8.00;1.00;;;;;;5028331;28;20034;-58
2023/04/17 04:34:24;;;;;;;58.80;23.75;;;8.20;1.00;;;;;;5024677;28;20479;-57
2023/04/17 04:36:50;;;;;;;54.70;21.88;;;7.10;1.00;;;;;;5029013;28;20103;-57
2023/04/17 04:39:19;;;;;;;62.75;22.08;;;7.30;1.00;;;;;;5022411;28;20040;-57
2023/04/17 04:41:54;;;;;;;74.25;26.20;;;;;;;;;;5021756;28;20037;-57
2023/04/17 04:44:20;;;;;;;90.82;27.10;;;7.30;1.00;;;;;;5021615;28;20045;-58
2023/04/17 04:46:46;;;;;;;50.95;20.85;;;7.50;1.00;;;;;;5021386;28;20051;-58
2023/04/17 04:49:12;;;;;;;51.38;20.63;;;7.90;1.00;;;;;;5019363;28;20455;-57
2023/04/17 04:51:38;;;;;;;51.17;21.02;;;;;;;;;;5031738;28;20037;-57
2023/04/17 04:54:04;;;;;;;53.45;18.77;;;7.40;1.00;;;;;;5024337;28;20487;-58
2023/04/17 04:56:30;;;;;;;61.88;20.90;;;8.10;1.00;;;;;;5023695;28;20402;-57
2023/04/17 04:58:56;;;;;;;80.80;26.05;;;7.30;1.00;;;;;;5025889;28;20061;-55
2023/04/17 05:01:22;;;;;;;74.53;20.45;;;7.50;1.00;;;;;;5027834;28;20378;-57
2023/04/17 05:03:48;;;;;;;50.22;21.17;;;7.50;1.00;;;;;;5020691;28;20704;-58
2023/04/17 05:06:14;;;;;;;42.75;20.27;;;7.20;1.00;;;;;;5036815;28;20088;-56
2023/04/17 05:08:41;;;;;;;39.90;19.25;;;;;;;;;;5026544;28;20098;-57
2023/04/17 05:11:07;;;;;;;63.33;20.85;;;7.30;1.00;;;;;;5024228;28;20384;-57
2023/04/17 05:13:33;;;;;;;76.43;24.85;;;;;;;;;;5021299;28;20458;-57
2023/04/17 05:15:59;;;;;;;41.42;19.83;;;7.80;1.00;;;;;;5019221;28;20475;-58
2023/04/17 05:18:25;;;;;;;48.65;21.17;;;7.50;1.00;;;;;;5027101;28;20058;-56
2023/04/17 05:20:51;;;;;;;73.45;24.35;;;7.00;1.00;;;;;;5023943;28;20054;-57
2023/04/17 05:23:21;;;;;;;62.42;22.73;;;7.50;1.00;;;;;;5027817;28;20112;-55
2023/04/17 05:25:48;;;;;;;56.38;21.23;;;7.30;1.00;;;;;;5028492;28;20542;-58
2023/04/17 05:28:14;;;;;;;61.83;24.92;;;7.50;1.00;;;;;;5027260;28;20406;-59
2023/04/17 05:30:39;;;;;;;76.68;23.98;;;7.60;1.00;;;;;;5028637;28;20030;-59
2023/04/17 05:33:05;;;;;;;64.03;24.98;;;7.40;1.00;;;;;;5028578;28;20168;-59
2023/04/17 05:35:31;;;;;;;53.17;22.70;;;7.60;1.00;;;;;;5027315;28;20033;-59
2023/04/17 05:37:56;;;;;;;60.03;24.15;;;7.10;1.00;;;;;;5021366;28;20116;-58
2023/04/17 05:40:22;;;;;;;61.05;23.92;;;7.60;1.00;;;;;;5030481;28;20044;-55
2023/04/17 05:42:48;;;;;;;55.55;22.15;;;8.20;1.00;;;;;;5030521;28;20142;-59
2023/04/17 05:45:14;;;;;;;51.88;20.85;;;7.30;1.00;;;;;;5030699;28;20140;-55
2023/04/17 05:47:40;;;;;;;51.10;20.13;;;7.70;1.00;;;;;;5030047;28;20049;-56
2023/04/17 05:50:07;;;;;;;48.78;21.33;;;7.80;1.00;;;;;;5031688;28;20403;-59
2023/04/17 05:52:33;;;;;;;43.30;18.95;;;7.40;1.00;;;;;;5028372;28;20091;-59
2023/04/17 05:54:59;;;;;;;43.63;19.90;;;8.20;1.00;;;;;;5031789;28;20100;-59
2023/04/17 05:57:24;;;;;;;44.97;20.58;;;7.70;1.00;;;;;;5031422;28;20041;-58
2023/04/17 05:59:50;;;;;;;46.88;19.85;;;8.20;1.00;;;;;;5031914;28;20098;-58
2023/04/17 06:02:16;;;;;;;52.80;21.33;;;;;;;;;;5022250;28;20130;-57
2023/04/17 06:04:43;;;;;;;38.45;19.33;;;;;;;;;;5018125;28;20053;-56
2023/04/17 06:07:09;;;;;;;35.47;16.90;;;8.30;1.00;;;;;;5014044;28;20042;-57
2023/04/17 06:09:36;;;;;;;44.65;19.65;;;8.40;1.00;;;;;;5032085;28;20399;-56
2023/04/17 06:12:02;;;;;;;37.28;18.48;;;7.90;1.00;;;;;;5023605;28;20525;-56
2023/04/17 06:14:28;;;;;;;44.78;19.90;;;7.40;99.90;;;;;;5019383;28;20105;-56
2023/04/17 06:16:53;;;;;;;42.72;18.75;;;7.90;99.90;;;;;;5027105;28;20121;-52
2023/04/17 06:19:19;;;;;;;45.45;19.45;;;8.20;99.90;;;;;;5021532;28;20407;-55
2023/04/17 06:21:45;;;;;;;40.22;18.23;;;8.30;99.90;;;;;;5024999;28;20041;-57
2023/04/17 06:24:11;;;;;;;38.30;19.27;;;;;;;;;;5028708;28;20084;-55
2023/04/17 06:26:37;;;;;;;36.97;17.25;;;8.40;99.90;;;;;;5018972;28;20403;-57
2023/04/17 06:29:03;;;;;;;36.47;18.60;;;8.00;99.90;;;;;;5020615;28;20038;-56
2023/04/17 06:31:29;;;;;;;36.45;18.33;;;7.90;99.90;;;;;;5031348;28;20052;-57
2023/04/17 06:33:54;;;;;;;41.33;19.10;;;7.40;99.90;;;;;;5031088;28;20073;-57
2023/04/17 06:36:20;;;;;;;38.67;18.02;;;7.90;99.90;;;;;;5031082;28;20064;-56
2023/04/17 06:38:46;;;;;;;33.33;17.38;;;;;;;;;;5031506;28;20086;-59
2023/04/17 06:41:13;;;;;;;41.28;18.27;;;8.00;99.90;;;;;;5022976;28;20446;-59
2023/04/17 06:43:39;;;;;;;35.58;17.50;;;8.10;99.90;;;;;;5021928;28;20107;-59
2023/04/17 06:46:04;;;;;;;33.63;16.45;;;8.10;99.90;;;;;;5031365;28;20065;-58
2023/04/17 06:48:30;;;;;;;38.58;17.00;;;8.40;99.90;;;;;;5030896;28;20530;-57
2023/04/17 06:50:56;;;;;;;39.65;20.75;;;8.30;99.90;;;;;;5029865;28;20037;-54
2023/04/17 06:53:22;;;;;;;36.33;18.77;;;8.80;99.90;;;;;;5027353;28;20043;-59
2023/04/17 06:55:47;;;;;;;38.88;20.08;;;8.20;99.90;;;;;;5024076;28;20041;-56
2023/04/17 06:58:13;;;;;;;37.55;18.00;;;;;;;;;;5022736;28;20431;-56
2023/04/17 07:00:39;;;;;;;41.85;20.50;;;8.20;99.90;;;;;;5030842;28;20029;-56
2023/04/17 07:03:05;;;;;;;35.92;19.33;;;8.60;99.90;;;;;;5029594;28;20038;-56
2023/04/17 07:05:31;;;;;;;36.80;19.17;;;8.60;99.90;;;;;;5027279;28;20069;-56
2023/04/17 07:07:56;;;;;;;40.55;19.42;;;8.60;99.90;;;;;;5019663;28;20034;-55
2023/04/17 07:10:22;;;;;;;33.88;17.35;;;8.70;99.90;;;;;;5029208;28;20034;-57
2023/04/17 07:12:48;;;;;;;35.90;19.20;;;8.70;99.90;;;;;;5030470;28;20045;-57
2023/04/17 07:15:13;;;;;;;37.50;19.27;;;8.80;99.90;;;;;;5023109;28;20105;-55
2023/04/17 07:17:39;;;;;;;38.28;19.23;;;8.90;99.90;;;;;;5021619;28;20120;-56
2023/04/17 07:20:06;;;;;;;32.00;17.25;;;9.00;99.90;;;;;;5030324;28;20033;-54
2023/04/17 07:22:33;;;;;;;30.65;15.13;;;8.60;99.90;;;;;;5029897;28;20498;-55
2023/04/17 07:24:59;;;;;;;27.13;15.48;;;;;;;;;;5030174;28;20502;-57
2023/04/17 07:27:25;;;;;;;30.33;16.40;;;8.70;99.90;;;;;;5024115;28;20045;-57
2023/04/17 07:29:54;;;;;;;37.53;18.40;;;8.70;99.90;;;;;;5024701;28;20399;-56
2023/04/17 07:32:23;;;;;;;31.52;16.88;;;8.60;99.90;;;;;;5021182;28;20114;-57
2023/04/17 07:34:48;;;;;;;30.17;16.73;;;9.00;99.90;;;;;;5029852;28;20542;-55
2023/04/17 07:37:15;;;;;;;30.55;17.02;;;;;;;;;;5029823;28;20183;-55
2023/04/17 07:39:40;;;;;;;35.88;17.92;;;8.70;99.90;;;;;;5030129;28;20086;-56
2023/04/17 07:42:07;;;;;;;35.20;17.92;;;8.70;99.90;;;;;;5045461;28;20179;-57
2023/04/17 07:44:38;;;;;;;30.23;16.00;;;8.70;99.90;;;;;;5029511;28;20029;-56
2023/04/17 07:47:04;;;;;;;27.80;16.55;;;9.00;99.90;;;;;;5029955;28;20033;-54
2023/04/17 07:49:29;;;;;;;30.85;16.98;;;9.00;99.90;;;;;;5027039;28;20048;-56
2023/04/17 07:51:55;;;;;;;29.33;15.95;;;9.00;99.90;;;;;;5020964;28;20048;-54
2023/04/17 07:54:21;;;;;;;25.90;15.27;;;8.80;99.90;;;;;;5028406;28;20044;-57
2023/04/17 07:56:48;;;;;;;27.77;16.08;;;9.60;99.90;;;;;;5028744;28;20045;-57
2023/04/17 07:59:15;;;;;;;27.35;15.88;;;9.10;99.90;;;;;;5029286;28;20510;-57
2023/04/17 08:01:40;;;;;;;28.20;16.60;;;9.10;99.90;;;;;;5029199;28;20172;-54
2023/04/17 08:04:06;;;;;;;31.48;17.05;;;8.90;99.90;;;;;;5029781;28;20064;-57
2023/04/17 08:06:32;;;;;;;27.88;17.08;;;9.40;99.90;;;;;;5021203;28;20474;-55
2023/04/17 08:09:00;;;;;;;26.23;16.05;;;9.10;99.90;;;;;;5030014;28;20045;-54
2023/04/17 08:11:27;;;;;;;27.40;16.45;;;9.20;99.90;;;;;;5028021;28;20053;-56
2023/04/17 08:13:53;;;;;;;23.42;14.05;;;10.00;99.90;;;;;;5029077;28;20044;-57
2023/04/17 08:16:20;;;;;;;21.48;13.35;;;9.40;99.90;;;;;;5027938;28;20045;-57
2023/04/17 08:18:45;;;;;;;21.33;13.07;;;10.10;99.90;;;;;;5029355;28;20526;-53
2023/04/17 08:21:11;;;;;;;24.42;15.18;;;10.00;99.90;;;;;;5021648;28;20046;-55
2023/04/17 08:23:37;;;;;;;26.10;14.10;;;10.00;99.90;;;;;;5028422;28;20073;-57
2023/04/17 08:26:03;;;;;;;22.67;13.05;;;9.10;99.90;;;;;;5022166;28;20084;-57
2023/04/17 08:28:29;;;;;;;27.48;15.40;;;9.10;99.90;;;;;;5025994;28;20403;-55
2023/04/17 08:30:54;;;;;;;30.75;16.98;;;9.00;99.90;;;;;;5027639;28;20033;-56
2023/04/17 08:33:20;;;;;;;21.98;13.60;;;9.40;48.50;;;;;;5023691;28;20183;-55
2023/04/17 08:35:46;;;;;;;20.55;13.45;;;9.30;63.70;;;;;;5029124;28;20107;-58
2023/04/17 08:38:13;;;;;;;19.77;13.77;;;;;;;;;;5029430;28;20107;-55
2023/04/17 08:40:45;;;;;;;22.63;14.00;;;9.70;13.10;;;;;;5028601;28;20398;-56
2023/04/17 08:43:16;;;;;;;26.88;15.70;;;10.40;1.00;;;;;;5029460;28;20037;-53
2023/04/17 08:45:55;;;;;;;26.02;15.15;;;10.30;1.00;;;;;;5024490;28;20045;-54
2023/04/17 08:48:21;;;;;;;24.52;13.38;;;10.00;1.00;;;;;;5027904;28;20041;-57
2023/04/17 08:50:52;;;;;;;22.20;13.93;;;10.50;1.00;;;;;;5028902;28;20518;-56
2023/04/17 08:53:19;;;;;;;24.75;15.45;;;10.20;1.00;;;;;;5028645;28;20436;-53
2023/04/17 08:55:46;;;;;;;23.15;15.02;;;10.40;1.00;;;;;;5029118;28;20034;-55
2023/04/17 08:58:13;;;;;;;31.35;17.85;;;9.60;1.00;;;;;;5029338;28;20037;-57
2023/04/17 09:00:40;;;;;;;26.63;15.45;;;10.40;99.90;;;;;;5020286;28;20048;-55
2023/04/17 09:03:08;;;;;;;31.63;17.73;;;10.10;99.90;;;;;;5028936;28;20586;-57
2023/04/17 09:05:37;;;;;;;32.80;19.13;;;10.70;99.90;;;;;;5028102;28;20037;-56
2023/04/17 09:08:21;;;;;;;31.08;18.15;;;9.90;99.90;;;;;;5027639;28;20467;-56
2023/04/17 09:10:51;;;;;;;29.90;17.83;;;10.50;99.90;;;;;;5021460;28;20091;-56
2023/04/17 09:13:19;;;;;;;27.05;15.73;;;10.50;99.90;;;;;;5028513;28;20037;-56
2023/04/17 09:16:01;;;;;;;21.40;12.90;;;11.20;99.90;;;;;;5031328;28;20547;-54
2023/04/17 09:18:31;;;;;;;19.95;13.48;;;11.10;99.90;;;;;;5024475;28;20037;-57
2023/04/17 09:20:58;;;;;;;20.90;13.25;;;10.70;95.50;;;;;;5032764;28;20502;-54
2023/04/17 09:23:26;;;;;;;19.25;13.18;;;;;;;;;;5026639;28;20509;-56
2023/04/17 09:26:12;;;;;;;18.83;11.90;;;10.70;7.10;;;;;;5025339;28;20498;-57
2023/04/17 09:28:39;;;;;;;18.02;12.10;;;;;;;;;;5032025;28;20049;-56
2023/04/17 09:31:17;;;;;;;15.80;10.88;;;11.30;99.90;;;;;;5025001;28;20045;-53
2023/04/17 09:33:55;;;;;;;17.10;11.98;;;10.90;99.90;;;;;;5032209;28;20045;-56
2023/04/17 09:36:21;;;;;;;16.67;11.40;;;11.80;99.90;;;;;;5032662;28;20598;-57
2023/04/17 09:38:47;;;;;;;17.13;11.27;;;11.30;99.90;;;;;;5031084;28;20133;-58
2023/04/17 09:41:24;;;;;;;19.83;12.15;;;11.10;99.90;;;;;;5014656;28;20124;-58
2023/04/17 09:43:52;;;;;;;17.15;11.57;;;11.30;99.90;;;;;;5026040;28;20235;-58
2023/04/17 09:46:41;;;;;;;18.73;12.88;;;12.00;99.90;;;;;;5006598;28;20522;-57
2023/04/17 09:49:07;;;;;;;19.75;12.55;;;12.10;79.40;;;;;;5019835;28;20152;-53
2023/04/17 09:51:34;;;;;;;18.10;12.00;;;12.10;17.50;;;;;;5023621;28;20034;-57
2023/04/17 09:54:05;;;;;;;19.25;13.10;;;12.50;1.00;;;;;;5032328;28;20116;-57
2023/04/17 09:56:32;;;;;;;19.90;13.88;;;12.40;1.00;;;;;;5030514;28;20123;-57
2023/04/17 09:59:04;;;;;;;18.35;13.18;;;12.60;99.90;;;;;;5030255;28;20125;-58
2023/04/17 10:01:31;;;;;;;19.88;13.18;;;12.50;99.90;;;;;;5029343;28;20041;-58
2023/04/17 10:03:57;;;;;;;16.35;12.07;;;12.70;99.90;;;;;;5031884;28;20509;-58
2023/04/17 10:06:25;;;;;;;16.63;11.80;;;13.00;99.90;;;;;;5031950;28;20495;-58
2023/04/17 10:08:51;;;;;;;17.15;12.70;;;13.00;99.90;;;;;;5024837;28;20041;-58
2023/04/17 10:11:18;;;;;;;16.17;11.57;;;13.70;99.90;;;;;;5032147;28;20034;-57
2023/04/17 10:13:48;;;;;;;16.35;10.98;;;13.70;99.90;;;;;;5029776;28;20049;-58
2023/04/17 10:16:14;;;;;;;16.85;10.80;;;13.10;99.90;;;;;;5031783;28;20081;-58
2023/04/17 10:18:39;;;;;;;18.55;11.90;;;13.10;99.90;;;;;;5030976;28;20165;-58
2023/04/17 10:21:20;;;;;;;15.18;11.00;;;14.30;99.90;;;;;;5026166;28;20053;-58
2023/04/17 10:23:47;;;;;;;16.48;11.18;;;14.30;86.60;;;;;;5046315;28;20120;-57
2023/04/17 10:26:33;;;;;;;15.27;11.55;;;14.10;1.00;;;;;;5031527;28;20052;-58
2023/04/17 10:28:59;;;;;;;17.13;11.75;;;14.40;1.00;;;;;;5030843;28;20052;-57
2023/04/17 10:32:24;;;;;;;15.05;10.38;;;14.10;99.90;;;;;;5024190;28;20124;-58
2023/04/17 10:34:51;;;;;;;17.33;11.20;;;15.00;99.90;;;;;;5004899;28;20521;-55
2023/04/17 10:37:17;;;;;;;14.80;10.93;;;14.20;99.90;;;;;;5028758;28;20538;-57
2023/04/17 10:40:01;;;;;;;14.18;9.57;;;14.80;99.90;;;;;;5025486;28;20042;-57
2023/04/17 10:42:28;;;;;;;14.70;11.20;;;15.00;99.90;;;;;;5028265;28;20037;-58
2023/04/17 10:45:03;;;;;;;14.70;10.75;;;15.00;99.90;;;;;;5031424;28;20064;-58
2023/04/17 10:47:33;;;;;;;12.57;10.10;;;14.80;99.90;;;;;;5031208;28;20052;-57
2023/04/17 10:50:02;;;;;;;15.15;11.13;;;14.90;99.90;;;;;;5021216;28;20038;-58
2023/04/17 10:52:31;;;;;;;14.75;11.18;;;14.50;99.90;;;;;;5027127;28;20033;-57
2023/04/17 10:55:14;;;;;;;16.52;10.88;;;15.20;99.90;;;;;;5024123;28;20144;-58
2023/04/17 10:57:57;;;;;;;15.73;11.02;;;14.70;99.90;;;;;;5028197;28;20052;-57
2023/04/17 11:00:31;;;;;;;14.07;9.88;;;15.60;99.90;;;;;;5030641;28;20395;-54
2023/04/17 11:02:58;;;;;;;14.35;10.52;;;14.80;99.90;;;;;;5018332;28;20038;-57
2023/04/17 11:05:23;;;;;;;18.95;11.98;;;14.90;99.90;;;;;;5029819;28;20506;-56
2023/04/17 11:07:50;;;;;;;15.55;11.00;;;15.60;99.90;;;;;;5022836;28;20045;-57
2023/04/17 11:10:19;;;;;;;15.85;11.45;;;14.70;99.90;;;;;;5027269;28;20115;-58
2023/04/17 11:12:46;;;;;;;15.88;12.15;;;15.60;99.90;;;;;;5029902;28;20049;-56
2023/04/17 11:15:12;;;;;;;15.77;11.57;;;15.30;99.90;;;;;;5030550;28;20041;-55
2023/04/17 11:17:44;;;;;;;16.00;12.82;;;14.70;99.90;;;;;;5022634;28;20049;-58
2023/04/17 11:20:10;;;;;;;15.40;10.82;;;15.50;99.90;;;;;;5025556;28;20044;-57
2023/04/17 11:22:35;;;;;;;16.02;11.45;;;14.50;99.90;;;;;;5025938;28;20041;-57
2023/04/17 11:25:02;;;;;;;14.57;11.35;;;14.90;99.90;;;;;;5006233;28;20073;-57
2023/04/17 11:27:28;;;;;;;16.70;12.75;;;15.60;86.20;;;;;;5025245;28;20067;-58
2023/04/17 11:29:53;;;;;;;14.35;10.07;;;15.30;99.90;;;;;;5029590;28;20112;-57
2023/04/17 11:32:19;;;;;;;15.07;10.30;;;15.70;94.30;;;;;;5026060;28;20030;-56
2023/04/17 11:34:45;;;;;;;13.80;9.90;;;15.50;62.40;;;;;;5018866;28;20128;-55
2023/04/17 11:37:13;;;;;;;14.02;10.10;;;15.60;56.80;;;;;;5020430;28;20041;-56
2023/04/17 11:39:41;;;;;;;14.75;10.85;;;15.90;1.00;;;;;;5019715;28;20048;-57
2023/04/17 11:42:07;;;;;;;19.00;12.15;;;16.60;1.00;;;;;;5024022;28;20073;-57
2023/04/17 11:44:33;;;;;;;15.10;11.00;;;16.60;1.00;;;;;;5020482;28;20073;-55
2023/04/17 11:47:00;;;;;;;14.48;10.07;;;16.50;1.00;;;;;;5018604;28;20042;-56
2023/04/17 11:49:37;;;;;;;16.88;11.90;;;16.50;1.00;;;;;;5015587;28;20033;-57
2023/04/17 11:52:03;;;;;;;14.80;10.93;;;16.00;99.90;;;;;;5027248;28;20041;-55
2023/04/17 11:54:37;;;;;;;15.02;10.85;;;15.70;99.90;;;;;;5028446;28;20499;-56
2023/04/17 11:57:10;;;;;;;16.40;11.88;;;16.40;99.90;;;;;;5023508;28;20037;-58
2023/04/17 11:59:38;;;;;;;15.90;11.50;;;15.90;99.90;;;;;;5021691;28;20098;-57
2023/04/17 12:02:06;;;;;;;15.95;10.95;;;16.50;99.90;;;;;;5023586;28;20537;-56
2023/04/17 12:04:33;;;;;;;14.57;10.68;;;16.00;99.90;;;;;;5023980;28;20075;-57
2023/04/17 12:07:00;;;;;;;15.57;11.25;;;16.40;99.90;;;;;;5028276;28;20040;-57
2023/04/17 12:09:30;;;;;;;17.35;12.65;;;16.40;99.90;;;;;;5021761;28;20038;-56
2023/04/17 12:11:57;;;;;;;17.35;11.73;;;16.30;99.90;;;;;;5019319;28;20037;-56
2023/04/17 12:14:23;;;;;;;16.70;12.82;;;16.80;99.90;;;;;;5029516;28;20038;-56
2023/04/17 12:16:50;;;;;;;15.82;11.77;;;16.50;99.90;;;;;;5029194;28;20044;-58
2023/04/17 12:19:16;;;;;;;17.35;12.90;;;16.80;99.90;;;;;;5022700;28;20048;-58
2023/04/17 12:21:42;;;;;;;18.77;13.82;;;16.60;99.90;;;;;;5020929;28;20037;-57
2023/04/17 12:24:09;;;;;;;16.73;11.88;;;18.40;99.90;;;;;;5023742;28;20033;-57
2023/04/17 12:26:35;;;;;;;18.55;12.50;;;19.10;99.90;;;;;;5028002;28;20045;-57
2023/04/17 12:29:00;;;;;;;16.98;12.18;;;21.00;99.90;;;;;;5029360;28;20521;-57
2023/04/17 12:31:26;;;;;;;15.05;11.82;;;23.60;99.90;;;;;;5023276;28;20514;-58
2023/04/17 12:33:52;;;;;;;15.13;11.60;;;25.50;99.90;;;;;;5024810;28;20561;-58
2023/04/17 12:36:18;;;;;;;15.43;10.63;;;27.00;99.90;;;;;;5029452;28;20117;-59
2023/04/17 12:38:43;;;;;;;15.05;11.15;;;28.20;99.90;;;;;;5027515;28;20419;-58
2023/04/17 12:41:09;;;;;;;13.48;10.55;;;29.00;97.20;;;;;;5029421;28;20029;-59
2023/04/17 12:43:35;;;;;;;16.67;11.85;;;30.80;84.20;;;;;;5020465;28;20096;-59
2023/04/17 12:46:01;;;;;;;17.25;12.30;;;31.10;59.40;;;;;;5029073;28;20806;-59